createdAt,value
2018-06-12T00:00:18.009Z,32.80
2018-06-12T00:03:21.707Z,27.00
2018-06-12T00:06:25.279Z,27.60
2018-06-12T00:09:28.738Z,25.27
2018-06-12T00:12:32.399Z,28.30
2018-06-12T00:15:36.042Z,33.40
2018-06-12T00:18:39.687Z,34.97
2018-06-12T00:21:43.349Z,40.40
2018-06-12T00:24:47.062Z,32.30
2018-06-12T00:27:50.622Z,36.20
2018-06-12T00:30:54.230Z,32.93
2018-06-12T00:33:57.813Z,29.40
2018-06-12T00:37:01.459Z,24.93
2018-06-12T00:40:05.093Z,28.83
2018-06-12T00:43:08.810Z,29.30
2018-06-12T00:46:12.318Z,32.77
2018-06-12T00:49:15.923Z,31.50
2018-06-12T00:52:19.484Z,28.73
2018-06-12T00:55:22.962Z,27.70
2018-06-12T00:58:26.599Z,26.70
2018-06-12T01:01:30.077Z,30.60
2018-06-12T01:04:33.643Z,33.47
2018-06-12T01:07:37.158Z,34.73
2018-06-12T01:10:40.819Z,27.80
2018-06-12T01:13:44.536Z,27.43
2018-06-12T01:16:48.228Z,30.57
2018-06-12T01:19:51.838Z,25.77
2018-06-12T01:22:55.394Z,30.17
2018-06-12T01:25:59.156Z,29.90
2018-06-12T01:29:02.704Z,28.00
2018-06-12T01:32:06.359Z,29.60
2018-06-12T01:35:09.954Z,29.23
2018-06-12T01:38:13.515Z,28.30
2018-06-12T01:41:17.120Z,31.50
2018-06-12T01:44:20.705Z,27.20
2018-06-12T01:47:24.292Z,27.50
2018-06-12T01:50:27.932Z,29.87
2018-06-12T01:53:31.429Z,26.90
2018-06-12T01:56:35.014Z,30.47
2018-06-12T01:59:38.534Z,29.03
2018-06-12T02:02:42.130Z,31.50
2018-06-12T02:05:45.737Z,32.00
2018-06-12T02:08:49.304Z,27.27
2018-06-12T02:11:52.858Z,30.67
2018-06-12T02:14:56.474Z,28.23
2018-06-12T02:18:00.104Z,29.90
2018-06-12T02:21:03.835Z,34.73
2018-06-12T02:24:07.440Z,32.23
2018-06-12T02:27:11.016Z,27.60
2018-06-12T02:30:14.601Z,27.20
2018-06-12T02:33:18.139Z,26.40
2018-06-12T02:36:21.693Z,30.23
2018-06-12T02:39:25.303Z,28.67
2018-06-12T02:42:28.950Z,25.20
2018-06-12T02:45:32.454Z,24.63
2018-06-12T02:48:36.018Z,26.90
2018-06-12T02:51:39.627Z,23.90
2018-06-12T02:54:43.186Z,28.00
2018-06-12T02:57:46.676Z,24.77
2018-06-12T03:00:50.253Z,27.20
2018-06-12T03:03:53.838Z,29.43
2018-06-12T03:06:57.445Z,29.10
2018-06-12T03:10:01.006Z,32.60
2018-06-12T03:13:04.508Z,28.70
2018-06-12T03:16:08.163Z,28.27
2018-06-12T03:19:11.699Z,32.57
2018-06-12T03:22:15.230Z,26.63
2018-06-12T03:25:18.915Z,26.67
2018-06-12T03:28:22.480Z,30.10
2018-06-12T03:31:26.049Z,31.00
2018-06-12T03:34:29.625Z,29.47
2018-06-12T03:37:33.223Z,26.03
2018-06-12T03:40:36.747Z,30.70
2018-06-12T03:43:40.318Z,27.33
2018-06-12T03:46:43.811Z,25.90
2018-06-12T03:49:47.355Z,22.57
2018-06-12T03:52:51.036Z,23.20
2018-06-12T03:55:54.708Z,19.47
2018-06-12T03:58:58.238Z,20.70
2018-06-12T04:02:01.783Z,21.03
2018-06-12T04:05:05.435Z,24.03
2018-06-12T04:08:08.950Z,20.57
2018-06-12T04:11:12.541Z,18.03
2018-06-12T04:14:16.122Z,21.17
2018-06-12T04:17:19.609Z,20.27
2018-06-12T04:20:23.201Z,28.80
2018-06-12T04:23:27.289Z,27.43
2018-06-12T04:26:31.069Z,22.60
2018-06-12T04:29:34.576Z,21.97
2018-06-12T04:32:38.176Z,17.00
2018-06-12T04:35:41.781Z,18.90
2018-06-12T04:38:45.361Z,21.20
2018-06-12T04:41:49.057Z,21.30
2018-06-12T04:44:52.601Z,15.87
2018-06-12T04:47:56.114Z,21.50
2018-06-12T04:50:59.765Z,19.63
2018-06-12T04:54:03.327Z,14.27
2018-06-12T04:57:06.875Z,17.87
2018-06-12T05:00:10.431Z,16.40
2018-06-12T05:03:13.981Z,23.20
2018-06-12T05:06:17.557Z,14.40
2018-06-12T05:09:21.155Z,16.00
2018-06-12T05:12:24.775Z,19.17
2018-06-12T05:15:28.481Z,17.50
2018-06-12T05:18:32.890Z,12.70
2018-06-12T05:21:36.530Z,20.93
2018-06-12T05:24:40.201Z,19.50
2018-06-12T05:27:43.870Z,19.00
2018-06-12T05:30:47.471Z,12.93
2018-06-12T05:33:51.029Z,21.80
2018-06-12T05:36:54.615Z,20.93
2018-06-12T05:39:58.186Z,19.13
2018-06-12T05:43:01.960Z,16.03
2018-06-12T05:46:05.653Z,13.07
2018-06-12T05:49:09.261Z,12.77
2018-06-12T05:52:12.810Z,12.37
2018-06-12T05:55:16.513Z,9.80
2018-06-12T05:58:20.093Z,12.73
2018-06-12T06:01:23.746Z,11.50
2018-06-12T06:04:27.297Z,15.20
2018-06-12T06:07:30.939Z,13.37
2018-06-12T06:10:34.540Z,9.70
2018-06-12T06:13:38.082Z,15.93
2018-06-12T06:16:41.676Z,10.67
2018-06-12T06:19:45.213Z,11.93
2018-06-12T06:22:48.839Z,10.80
2018-06-12T06:25:52.643Z,10.90
2018-06-12T06:28:56.281Z,12.50
2018-06-12T06:31:59.936Z,9.00
2018-06-12T06:35:03.602Z,10.03
2018-06-12T06:38:07.157Z,9.90
2018-06-12T06:41:10.716Z,10.27
2018-06-12T06:44:14.361Z,9.33
2018-06-12T06:47:18.101Z,9.97
2018-06-12T06:50:21.682Z,11.80
2018-06-12T06:53:25.343Z,10.60
2018-06-12T06:56:29.032Z,7.90
2018-06-12T06:59:32.806Z,9.10
2018-06-12T07:02:36.325Z,7.40
2018-06-12T07:05:39.907Z,9.50
2018-06-12T07:08:43.465Z,7.37
2018-06-12T07:11:47.052Z,12.13
2018-06-12T07:14:50.725Z,12.87
2018-06-12T07:17:54.300Z,10.47
2018-06-12T07:21:00.051Z,11.60
2018-06-12T07:24:03.891Z,14.70
2018-06-12T07:27:07.546Z,8.53
2018-06-12T07:30:11.170Z,13.93
2018-06-12T07:33:14.908Z,10.63
2018-06-12T07:36:18.546Z,8.87
2018-06-12T07:39:22.102Z,16.83
2018-06-12T07:42:25.643Z,14.03
2018-06-12T07:45:29.279Z,12.13
2018-06-12T07:48:32.902Z,8.93
2018-06-12T07:51:36.489Z,12.37
2018-06-12T07:54:40.057Z,9.67
2018-06-12T07:57:43.987Z,17.47
2018-06-12T08:00:47.597Z,12.27
2018-06-12T08:03:51.152Z,9.30
2018-06-12T08:06:54.805Z,8.00
2018-06-12T08:09:58.407Z,10.60
2018-06-12T08:13:02.535Z,11.97
2018-06-12T08:16:06.174Z,11.53
2018-06-12T08:19:09.798Z,9.57
2018-06-12T08:22:13.361Z,9.70
2018-06-12T08:25:17.154Z,14.30
2018-06-12T08:28:20.684Z,7.60
2018-06-12T08:31:24.324Z,9.60
2018-06-12T08:34:27.871Z,7.90
2018-06-12T08:37:31.455Z,11.03
2018-06-12T08:40:34.985Z,15.10
2018-06-12T08:43:38.604Z,9.70
2018-06-12T08:46:42.279Z,8.77
2018-06-12T08:49:45.853Z,11.60
2018-06-12T08:52:55.795Z,9.23
2018-06-12T08:55:59.380Z,9.87
2018-06-12T08:59:02.949Z,12.03
2018-06-12T09:02:06.910Z,9.67
2018-06-12T09:05:10.528Z,8.20
2018-06-12T09:08:14.319Z,14.57
2018-06-12T09:11:17.851Z,10.07
2018-06-12T09:14:21.464Z,12.53
2018-06-12T09:17:25.017Z,9.03
2018-06-12T09:20:28.783Z,8.93
2018-06-12T09:23:32.450Z,8.97
2018-06-12T09:26:36.023Z,10.90
2018-06-12T09:29:39.552Z,10.13
2018-06-12T09:32:43.112Z,8.87
2018-06-12T09:35:46.683Z,9.77
2018-06-12T09:38:50.263Z,9.13
2018-06-12T09:41:53.814Z,12.17
2018-06-12T09:44:57.403Z,10.03
2018-06-12T09:48:01.000Z,11.83
2018-06-12T09:51:04.558Z,11.50
2018-06-12T09:54:08.215Z,10.43
2018-06-12T09:57:11.905Z,9.33
2018-06-12T10:00:15.606Z,13.57
2018-06-12T10:03:19.165Z,8.87
2018-06-12T10:06:22.738Z,8.23
2018-06-12T10:09:26.308Z,8.97
2018-06-12T10:12:29.971Z,10.10
2018-06-12T10:15:33.624Z,11.53
2018-06-12T10:18:37.218Z,11.80
2018-06-12T10:21:40.786Z,9.10
2018-06-12T10:24:44.552Z,10.53
2018-06-12T10:27:48.126Z,7.00
2018-06-12T10:30:51.860Z,9.17
2018-06-12T10:33:55.426Z,9.20
2018-06-12T10:36:59.018Z,8.60
2018-06-12T10:40:02.546Z,8.70
2018-06-12T10:43:06.379Z,8.73
2018-06-12T10:46:10.036Z,8.77
2018-06-12T10:49:13.628Z,10.43
2018-06-12T10:52:17.291Z,7.43
2018-06-12T10:55:20.855Z,8.60
2018-06-12T10:58:24.416Z,8.43
2018-06-12T11:01:27.941Z,8.10
2018-06-12T11:04:31.569Z,8.40
2018-06-12T11:07:35.202Z,10.03
2018-06-12T11:10:38.730Z,9.33
2018-06-12T11:13:42.390Z,13.77
2018-06-12T11:16:46.001Z,9.00
2018-06-12T11:19:49.620Z,9.83
2018-06-12T11:22:53.326Z,8.07
2018-06-12T11:25:57.182Z,12.13
2018-06-12T11:29:00.954Z,10.40
2018-06-12T11:32:05.145Z,12.83
2018-06-12T11:35:08.709Z,11.57
2018-06-12T11:38:12.384Z,10.37
2018-06-12T11:41:15.927Z,9.17
2018-06-12T11:44:19.571Z,10.53
2018-06-12T11:47:23.164Z,7.20
2018-06-12T11:50:26.764Z,7.87
2018-06-12T11:53:30.302Z,10.40
2018-06-12T11:56:33.817Z,9.60
2018-06-12T11:59:37.676Z,10.33
2018-06-12T12:02:41.279Z,14.83
2018-06-12T12:05:44.932Z,9.13
2018-06-12T12:08:48.529Z,10.27
2018-06-12T12:11:52.210Z,10.20
2018-06-12T12:14:55.748Z,13.17
2018-06-12T12:17:59.305Z,12.10
2018-06-12T12:21:03.115Z,10.63
2018-06-12T12:24:06.797Z,8.90
2018-06-12T12:27:10.419Z,8.93
2018-06-12T12:30:14.066Z,13.30
2018-06-12T12:33:17.718Z,8.97
2018-06-12T12:36:21.384Z,7.73
2018-06-12T12:39:25.041Z,10.53
2018-06-12T12:42:28.936Z,9.87
2018-06-12T12:45:32.641Z,9.03
2018-06-12T12:48:36.181Z,10.07
2018-06-12T12:51:39.820Z,11.43
2018-06-12T12:54:43.380Z,8.13
2018-06-12T12:57:46.936Z,10.20
2018-06-12T13:00:50.500Z,10.40
2018-06-12T13:03:55.087Z,10.40
2018-06-12T13:06:58.632Z,9.10
2018-06-12T13:10:02.261Z,11.83
2018-06-12T13:13:05.960Z,9.07
2018-06-12T13:16:09.585Z,9.20
2018-06-12T13:19:13.235Z,12.80
2018-06-12T13:22:16.886Z,8.97
2018-06-12T13:25:20.637Z,12.70
2018-06-12T13:28:30.048Z,18.57
2018-06-12T13:31:33.704Z,11.40
2018-06-12T13:34:37.316Z,9.80
2018-06-12T13:37:40.934Z,6.20
2018-06-12T13:40:45.494Z,14.50
2018-06-12T13:43:49.072Z,10.77
2018-06-12T13:46:52.602Z,9.83
2018-06-12T13:49:56.164Z,6.80
2018-06-12T13:52:59.771Z,9.03
2018-06-12T13:56:03.368Z,9.40
2018-06-12T13:59:06.911Z,8.83
2018-06-12T14:02:10.526Z,6.30
2018-06-12T14:05:14.058Z,9.17
2018-06-12T14:08:17.671Z,11.10
2018-06-12T14:11:21.281Z,8.07
2018-06-12T14:14:24.913Z,7.13
2018-06-12T14:17:28.559Z,13.63
2018-06-12T14:20:32.151Z,10.20
2018-06-12T14:23:35.733Z,6.90
2018-06-12T14:26:39.286Z,9.37
2018-06-12T14:29:42.789Z,9.27
2018-06-12T14:32:46.354Z,8.97
2018-06-12T14:35:49.948Z,11.07
2018-06-12T14:38:53.527Z,10.13
2018-06-12T14:41:57.196Z,12.50
2018-06-12T14:45:00.861Z,10.60
2018-06-12T14:48:04.547Z,9.23
2018-06-12T14:51:08.163Z,7.63
2018-06-12T14:54:11.830Z,9.60
2018-06-12T14:57:15.422Z,7.60
2018-06-12T15:00:19.083Z,6.53
2018-06-12T15:03:22.708Z,8.73
2018-06-12T15:06:26.281Z,7.97
2018-06-12T15:09:29.937Z,9.00
2018-06-12T15:12:33.587Z,9.60
2018-06-12T15:15:37.243Z,7.97
2018-06-12T15:18:40.853Z,9.90
2018-06-12T15:21:44.557Z,9.27
2018-06-12T15:24:48.307Z,9.80
2018-06-12T15:27:51.904Z,8.40
2018-06-12T15:30:55.612Z,9.20
2018-06-12T15:33:59.271Z,7.43
2018-06-12T15:37:02.864Z,5.70
2018-06-12T15:40:06.738Z,8.80
2018-06-12T15:43:10.309Z,8.53
2018-06-12T15:46:13.969Z,8.30
2018-06-12T15:49:17.748Z,7.87
2018-06-12T15:52:21.353Z,11.43
2018-06-12T15:55:25.074Z,10.73
2018-06-12T15:58:28.742Z,7.07
2018-06-12T16:01:32.499Z,10.30
2018-06-12T16:04:36.144Z,7.40
2018-06-12T16:07:39.817Z,13.57
2018-06-12T16:10:43.368Z,14.07
2018-06-12T16:13:47.043Z,11.30
2018-06-12T16:16:50.696Z,8.77
2018-06-12T16:19:54.280Z,9.30
2018-06-12T16:22:57.873Z,9.57
2018-06-12T16:26:01.618Z,9.43
2018-06-12T16:29:05.169Z,10.50
2018-06-12T16:32:08.889Z,9.70
2018-06-12T16:35:12.530Z,9.63
2018-06-12T16:38:16.138Z,11.47
2018-06-12T16:41:19.794Z,8.37
2018-06-12T16:44:23.448Z,8.67
2018-06-12T16:47:27.044Z,15.13
2018-06-12T16:50:30.599Z,9.73
2018-06-12T16:53:34.408Z,17.03
2018-06-12T16:56:38.061Z,9.53
2018-06-12T16:59:41.668Z,9.90
2018-06-12T17:02:45.325Z,7.97
2018-06-12T17:05:48.914Z,10.43
2018-06-12T17:08:52.465Z,13.93
2018-06-12T17:11:56.135Z,12.10
2018-06-12T17:14:59.784Z,10.47
2018-06-12T17:18:03.515Z,9.00
2018-06-12T17:21:07.358Z,11.53
2018-06-12T17:24:14.925Z,10.73
2018-06-12T17:27:18.584Z,9.77
2018-06-12T17:30:22.205Z,10.93
2018-06-12T17:33:27.890Z,13.43
2018-06-12T17:36:31.742Z,8.43
2018-06-12T17:39:35.427Z,9.70
2018-06-12T17:42:39.182Z,9.90
2018-06-12T17:45:42.910Z,12.07
2018-06-12T17:48:46.548Z,7.23
2018-06-12T17:51:50.168Z,11.30
2018-06-12T17:54:53.850Z,8.70
2018-06-12T17:57:57.449Z,8.90
2018-06-12T18:01:01.211Z,13.00
2018-06-12T18:04:04.990Z,8.47
2018-06-12T18:07:08.665Z,8.33
2018-06-12T18:10:12.409Z,9.20
2018-06-12T18:13:16.073Z,9.63
2018-06-12T18:16:19.738Z,8.97
2018-06-12T18:19:23.330Z,10.00
2018-06-12T18:22:27.030Z,9.67
2018-06-12T18:25:30.826Z,9.40
2018-06-12T18:28:34.509Z,12.97
2018-06-12T18:31:38.101Z,9.20
2018-06-12T18:34:41.761Z,8.93
2018-06-12T18:37:45.384Z,8.37
2018-06-12T18:40:49.196Z,8.30
2018-06-12T18:43:52.918Z,8.87
2018-06-12T18:46:56.726Z,10.60
2018-06-12T18:50:00.441Z,8.00
2018-06-12T18:53:04.015Z,8.00
2018-06-12T18:56:07.867Z,9.03
2018-06-12T18:59:11.576Z,8.57
2018-06-12T19:02:15.297Z,8.87
2018-06-12T19:05:18.975Z,12.63
2018-06-12T19:08:22.837Z,11.20
2018-06-12T19:11:26.515Z,12.20
2018-06-12T19:14:30.036Z,7.43
2018-06-12T19:17:33.851Z,9.20
2018-06-12T19:20:37.614Z,12.83
2018-06-12T19:23:41.450Z,8.03
2018-06-12T19:26:45.320Z,9.50
2018-06-12T19:29:48.949Z,7.30
2018-06-12T19:32:52.622Z,6.20
2018-06-12T19:35:56.238Z,8.27
2018-06-12T19:38:59.906Z,6.23
2018-06-12T19:42:03.585Z,8.97
2018-06-12T19:45:07.163Z,10.27
2018-06-12T19:48:11.060Z,11.37
2018-06-12T19:51:14.761Z,7.20
2018-06-12T19:54:18.387Z,7.43
2018-06-12T19:57:22.047Z,7.17
2018-06-12T20:00:25.828Z,8.17
2018-06-12T20:03:29.675Z,5.93
2018-06-12T20:06:33.403Z,10.57
2018-06-12T20:09:37.089Z,8.97
2018-06-12T20:12:40.731Z,8.00
2018-06-12T20:15:44.676Z,9.57
2018-06-12T20:18:48.385Z,6.00
2018-06-12T20:21:51.919Z,8.73
2018-06-12T20:24:55.863Z,9.70
2018-06-12T20:27:59.520Z,7.17
2018-06-12T20:31:03.285Z,5.57
2018-06-12T20:34:07.036Z,7.93
2018-06-12T20:37:10.650Z,8.60
2018-06-12T20:40:14.361Z,5.60
2018-06-12T20:43:17.988Z,11.17
2018-06-12T20:46:21.638Z,7.53
2018-06-12T20:49:25.356Z,7.50
2018-06-12T20:52:29.023Z,6.53
2018-06-12T20:55:32.717Z,5.93
2018-06-12T20:58:36.350Z,7.97
2018-06-12T21:01:39.996Z,8.80
2018-06-12T21:04:43.656Z,7.30
2018-06-12T21:07:47.433Z,5.70
2018-06-12T21:10:51.085Z,8.13
2018-06-12T21:13:54.685Z,7.27
2018-06-12T21:16:58.275Z,6.70
2018-06-12T21:20:01.930Z,6.10
2018-06-12T21:23:06.435Z,12.73
2018-06-12T21:26:10.145Z,7.13
2018-06-12T21:29:13.858Z,8.07
2018-06-12T21:32:17.625Z,8.47
2018-06-12T21:35:21.314Z,7.37
2018-06-12T21:38:25.078Z,7.57
2018-06-12T21:41:28.743Z,6.90
2018-06-12T21:44:32.292Z,9.33
2018-06-12T21:47:35.881Z,6.77
2018-06-12T21:50:39.455Z,7.40
2018-06-12T21:53:43.061Z,13.00
2018-06-12T21:56:46.673Z,9.07
2018-06-12T21:59:50.230Z,6.13
2018-06-12T22:02:53.748Z,8.63
2018-06-12T22:05:57.443Z,6.93
2018-06-12T22:09:01.021Z,8.73
2018-06-12T22:12:04.573Z,8.30
2018-06-12T22:15:14.557Z,8.93
2018-06-12T22:18:18.175Z,10.30
2018-06-12T22:21:21.845Z,8.30
2018-06-12T22:24:27.389Z,7.97
2018-06-12T22:27:30.991Z,10.40
2018-06-12T22:30:34.655Z,7.63
2018-06-12T22:33:38.351Z,10.73
2018-06-12T22:36:41.937Z,8.73
2018-06-12T22:39:45.613Z,7.53
2018-06-12T22:42:49.388Z,14.73
2018-06-12T22:45:53.027Z,7.97
2018-06-12T22:48:56.611Z,9.60
2018-06-12T22:52:00.208Z,10.40
2018-06-12T22:55:03.900Z,11.13
2018-06-12T22:58:07.639Z,13.10
2018-06-12T23:01:11.270Z,11.77
2018-06-12T23:04:14.945Z,15.10
2018-06-12T23:07:18.613Z,8.30
2018-06-12T23:10:22.336Z,8.70
2018-06-12T23:13:25.972Z,8.97
2018-06-12T23:16:29.613Z,8.30
2018-06-12T23:20:39.056Z,9.90
2018-06-12T23:23:42.792Z,7.73
2018-06-12T23:26:46.420Z,11.33
2018-06-12T23:29:50.210Z,10.80
2018-06-12T23:32:53.911Z,13.67
2018-06-12T23:35:57.582Z,11.10
2018-06-12T23:39:01.180Z,7.83
2018-06-12T23:42:04.812Z,8.97
2018-06-12T23:45:08.386Z,11.00
2018-06-12T23:48:12.038Z,8.57
2018-06-12T23:51:15.559Z,9.63
2018-06-12T23:54:19.178Z,9.63
2018-06-12T23:57:22.876Z,11.23
